Time;durP1;ratioP1;P1;durP2;ratioP2;P2;SDS_P1;SDS_P2;PMS_P1;PMS_P2;Temp;Humidity;BMP_temperature;BMP_pressure;BME280_temperature;BME280_humidity;BME280_pressure;Samples;Min_cycle;Max_cycle;Signal;HPM_P1;HPM_P2
2023/11/26 00:01:27;;;;;;;6.20;2.20;;;;;;;;;;4998989;28;20470;-84
2023/11/26 00:07:37;;;;;;;6.43;2.60;;;;;;;;;;5019570;28;20477;-82
2023/11/26 00:10:25;;;;;;;6.67;2.60;;;;;;;;;;5001971;28;20482;-84
2023/11/26 00:13:16;;;;;;;5.30;2.93;;;;;;;;;;5010822;28;21310;-85
2023/11/26 00:16:02;;;;;;;5.10;2.87;;;;;;;;;;5010728;28;20549;-85
2023/11/26 00:18:41;;;;;;;4.07;2.23;;;;;;;;;;5027475;28;20474;-86
2023/11/26 00:24:33;;;;;;;6.50;2.30;;;;;;;;;;5024471;28;20542;-84
2023/11/26 00:27:39;;;;;;;4.17;2.90;;;;;;;;;;5008303;28;20491;-84
2023/11/26 00:30:27;;;;;;;6.70;3.10;;;;;;;;;;5008766;28;20458;-85
2023/11/26 00:33:19;;;;;;;6.20;3.77;;;;;;;;;;5010766;28;20457;-86
2023/11/26 00:35:53;;;;;;;6.40;2.90;;;;;;;;;;5014975;28;20546;-85
2023/11/26 00:38:42;;;;;;;6.63;2.90;;;;;;;;;;5018890;28;20478;-85
2023/11/26 00:41:44;;;;;;;7.97;3.10;;;;;;;;;;5009702;28;20462;-85
2023/11/26 00:44:28;;;;;;;12.70;3.40;;;;;;;;;;5023389;28;20490;-83
2023/11/26 00:47:21;;;;;;;;;;;;;;;;;;;;;
2023/11/26 00:50:17;;;;;;;5.00;3.30;;;;;;;;;;5028767;28;20485;-84
2023/11/26 00:53:10;;;;;;;12.20;3.20;;;;;;;;;;5019898;28;20709;-82
2023/11/26 00:56:22;;;;;;;8.50;2.73;;;;;;;;;;5018474;28;20433;-86
2023/11/26 00:59:06;;;;;;;4.03;3.00;;;;;;;;;;5013660;28;20466;-86
2023/11/26 01:01:59;;;;;;;4.90;3.30;;;;;;;;;;5016746;28;20458;-86
2023/11/26 01:04:47;;;;;;;4.90;3.20;;;;;;;;;;5012352;28;20449;-85
2023/11/26 01:07:37;;;;;;;8.10;3.30;;;;;;;;;;5016186;28;20449;-85
2023/11/26 01:10:24;;;;;;;11.63;4.80;;;;;;;;;;5008568;28;20455;-85
2023/11/26 01:13:15;;;;;;;4.33;2.70;;;;;;;;;;5008665;28;20469;-84
2023/11/26 01:16:02;;;;;;;9.93;3.80;;;;;;;;;;5021730;28;20453;-85
2023/11/26 01:18:43;;;;;;;6.10;3.60;;;;;;;;;;5025827;23;20585;-84
2023/11/26 01:21:49;;;;;;;;;;;;;;;;;;;;;
2023/11/26 01:24:30;;;;;;;8.13;4.00;;;;;;;;;;5024200;28;20458;-84
2023/11/26 01:27:28;;;;;;;9.07;3.90;;;;;;;;;;5029126;28;20514;-85
2023/11/26 01:30:05;;;;;;;9.90;3.40;;;;;;;;;;5013849;28;20517;-84
2023/11/26 01:32:42;;;;;;;4.87;3.30;;;;;;;;;;5012171;28;20474;-83
2023/11/26 01:35:34;;;;;;;10.27;4.33;;;;;;;;;;5009022;28;20475;-84
2023/11/26 01:38:23;;;;;;;5.40;3.80;;;;;;;;;;5016571;28;20475;-86
2023/11/26 01:41:10;;;;;;;9.33;4.37;;;;;;;;;;5066467;23;20491;-84
2023/11/26 01:43:58;;;;;;;6.80;3.70;;;;;;;;;;5022723;28;20500;-85
2023/11/26 01:47:04;;;;;;;8.53;4.27;;;;;;;;;;5025204;28;20462;-85
2023/11/26 01:49:48;;;;;;;6.03;4.33;;;;;;;;;;5030323;28;20523;-84
2023/11/26 01:52:32;;;;;;;8.73;4.87;;;;;;;;;;5031111;28;20562;-84
2023/11/26 01:55:17;;;;;;;7.67;3.50;;;;;;;;;;5042545;28;20802;-85
2023/11/26 01:57:45;;;;;;;6.37;3.80;;;;;;;;;;5018965;28;20472;-84
2023/11/26 02:00:22;;;;;;;7.00;3.67;;;;;;;;;;5019499;28;20452;-84
2023/11/26 02:03:18;;;;;;;6.67;3.43;;;;;;;;;;5036286;28;20597;-85
2023/11/26 02:06:04;;;;;;;5.97;3.87;;;;;;;;;;5027218;28;20492;-85
2023/11/26 02:08:53;;;;;;;9.90;4.03;;;;;;;;;;5015293;28;20441;-88
2023/11/26 02:11:48;;;;;;;7.53;3.93;;;;;;;;;;5032665;28;20511;-84
2023/11/26 02:14:34;;;;;;;3.90;3.50;;;;;;;;;;5048524;28;20465;-86
2023/11/26 02:17:14;;;;;;;7.87;4.67;;;;;;;;;;5029529;28;20460;-85
2023/11/26 02:20:04;;;;;;;5.43;2.90;;;;;;;;;;5021264;28;20527;-86
2023/11/26 02:22:42;;;;;;;7.67;4.13;;;;;;;;;;5020637;28;20473;-83
2023/11/26 02:25:13;;;;;;;12.17;3.20;;;;;;;;;;5037441;28;20464;-86
2023/11/26 02:27:44;;;;;;;8.07;3.57;;;;;;;;;;5020302;28;20505;-84
2023/11/26 02:30:25;;;;;;;7.03;3.13;;;;;;;;;;5042649;28;20877;-84
2023/11/26 02:32:57;;;;;;;6.90;3.17;;;;;;;;;;5027069;28;20482;-85
2023/11/26 02:35:27;;;;;;;8.30;3.30;;;;;;;;;;5021041;28;21042;-85
2023/11/26 02:38:06;;;;;;;5.93;3.50;;;;;;;;;;5026618;28;20539;-84
2023/11/26 02:40:38;;;;;;;7.13;3.73;;;;;;;;;;5040769;28;20437;-83
2023/11/26 02:43:14;;;;;;;8.00;4.83;;;;;;;;;;5026545;28;20460;-85
2023/11/26 02:46:01;;;;;;;10.30;4.20;;;;;;;;;;5031235;28;20449;-84
2023/11/26 02:48:37;;;;;;;6.80;4.10;;;;;;;;;;5023243;28;21022;-85
2023/11/26 02:51:30;;;;;;;6.70;3.97;;;;;;;;;;5025105;28;20481;-85
2023/11/26 02:54:07;;;;;;;8.93;3.77;;;;;;;;;;5042245;28;20452;-86
2023/11/26 02:56:50;;;;;;;12.40;3.53;;;;;;;;;;5032549;28;20516;-83
2023/11/26 02:59:27;;;;;;;6.67;3.87;;;;;;;;;;5029869;28;20567;-86
2023/11/26 03:01:59;;;;;;;4.80;3.10;;;;;;;;;;5043174;28;20514;-84
2023/11/26 03:04:30;;;;;;;7.40;3.10;;;;;;;;;;5054883;28;20460;-84
2023/11/26 03:07:35;;;;;;;5.67;3.07;;;;;;;;;;5037536;28;20507;-86
2023/11/26 03:13:11;;;;;;;5.33;2.93;;;;;;;;;;5039365;28;20517;-83
2023/11/26 03:15:45;;;;;;;8.20;3.40;;;;;;;;;;5019588;28;20457;-85
2023/11/26 03:18:17;;;;;;;8.87;3.47;;;;;;;;;;5020316;28;20470;-84
2023/11/26 03:20:56;;;;;;;5.83;3.27;;;;;;;;;;5038354;28;20441;-84
2023/11/26 03:23:37;;;;;;;7.13;3.43;;;;;;;;;;5040100;28;20444;-83
2023/11/26 03:26:08;;;;;;;4.83;3.53;;;;;;;;;;5021413;28;20441;-83
2023/11/26 03:28:49;;;;;;;10.87;3.70;;;;;;;;;;5023834;28;20552;-84
2023/11/26 03:31:31;;;;;;;6.43;3.60;;;;;;;;;;5038899;28;20512;-85
2023/11/26 03:34:10;;;;;;;13.77;3.93;;;;;;;;;;5014304;28;20473;-83
2023/11/26 03:36:56;;;;;;;9.93;4.03;;;;;;;;;;5035403;28;20626;-85
2023/11/26 03:39:40;;;;;;;6.87;3.87;;;;;;;;;;5026805;28;20971;-84
2023/11/26 03:42:22;;;;;;;6.30;4.17;;;;;;;;;;5033411;28;20532;-84
2023/11/26 03:45:06;;;;;;;4.77;3.60;;;;;;;;;;5034655;28;20625;-84
2023/11/26 03:48:03;;;;;;;5.07;3.43;;;;;;;;;;5018081;28;20467;-85
2023/11/26 03:50:42;;;;;;;9.30;3.83;;;;;;;;;;5016996;28;20457;-85
2023/11/26 03:53:14;;;;;;;8.53;3.87;;;;;;;;;;5033761;28;20468;-83
2023/11/26 03:56:19;;;;;;;11.13;5.03;;;;;;;;;;5009521;28;20940;-83
2023/11/26 03:59:18;;;;;;;6.93;3.90;;;;;;;;;;5014556;28;20465;-83
2023/11/26 04:01:53;;;;;;;8.53;4.27;;;;;;;;;;5015371;28;20460;-85
2023/11/26 04:04:32;;;;;;;5.80;4.57;;;;;;;;;;5016528;28;20471;-84
2023/11/26 04:07:28;;;;;;;8.70;4.30;;;;;;;;;;4994275;28;20464;-85
2023/11/26 04:10:04;;;;;;;13.53;6.13;;;;;;;;;;5031845;28;21431;-85
2023/11/26 04:12:46;;;;;;;9.90;5.40;;;;;;;;;;5011520;28;20476;-85
2023/11/26 04:15:28;;;;;;;10.90;4.90;;;;;;;;;;5030680;28;20547;-85
2023/11/26 04:18:29;;;;;;;;;;;;;;;;;;;;;
2023/11/26 04:21:18;;;;;;;7.33;5.70;;;;;;;;;;5031085;28;20485;-84
2023/11/26 04:23:54;;;;;;;11.23;6.03;;;;;;;;;;5012604;28;20878;-86
2023/11/26 04:29:46;;;;;;;11.77;6.57;;;;;;;;;;5024678;28;20901;-84
2023/11/26 04:32:31;;;;;;;12.50;6.60;;;;;;;;;;5014324;28;20978;-84
2023/11/26 04:35:28;;;;;;;11.37;6.20;;;;;;;;;;5023222;28;20471;-84
2023/11/26 04:38:13;;;;;;;12.53;6.90;;;;;;;;;;5047417;28;20473;-83
2023/11/26 04:40:52;;;;;;;15.70;7.23;;;;;;;;;;5034479;28;20467;-85
2023/11/26 04:43:22;;;;;;;14.57;7.13;;;;;;;;;;5051022;28;20453;-86
2023/11/26 04:46:07;;;;;;;9.30;7.37;;;;;;;;;;5014553;28;20488;-84
2023/11/26 04:48:38;;;;;;;10.80;7.37;;;;;;;;;;5011689;28;21382;-84
2023/11/26 04:51:14;;;;;;;9.67;7.40;;;;;;;;;;5028829;28;20452;-83
2023/11/26 04:54:01;;;;;;;12.83;7.50;;;;;;;;;;5030534;28;20449;-85
2023/11/26 05:02:59;;;;;;;15.37;7.00;;;;;;;;;;5030994;28;20472;-84
2023/11/26 05:05:39;;;;;;;15.83;8.63;;;;;;;;;;5030345;28;20475;-83
2023/11/26 05:08:38;;;;;;;11.77;8.00;;;;;;;;;;5012903;28;20485;-84
2023/11/26 05:11:08;;;;;;;16.33;8.50;;;;;;;;;;5029782;28;20482;-84
2023/11/26 05:13:58;;;;;;;11.43;10.23;;;;;;;;;;5029986;28;20579;-85
2023/11/26 05:16:52;;;;;;;14.40;8.13;;;;;;;;;;5030595;28;21676;-86
2023/11/26 05:19:54;;;;;;;12.17;8.33;;;;;;;;;;5016301;28;20444;-84
2023/11/26 05:22:51;;;;;;;14.83;8.73;;;;;;;;;;5023811;28;20456;-83
2023/11/26 05:25:41;;;;;;;12.50;7.20;;;;;;;;;;5027915;28;20457;-85
2023/11/26 05:28:36;;;;;;;13.53;8.30;;;;;;;;;;5036627;28;20793;-84
2023/11/26 05:31:11;;;;;;;10.43;7.80;;;;;;;;;;5029586;28;20452;-85
2023/11/26 05:33:59;;;;;;;12.60;8.27;;;;;;;;;;5022433;28;20473;-83
2023/11/26 05:37:11;;;;;;;15.60;8.00;;;;;;;;;;5031347;28;20455;-83
2023/11/26 05:39:43;;;;;;;11.53;8.07;;;;;;;;;;5050779;28;20512;-83
2023/11/26 05:43:11;;;;;;;12.40;7.93;;;;;;;;;;5030081;28;20422;-85
2023/11/26 05:46:01;;;;;;;14.60;7.93;;;;;;;;;;5028956;28;20509;-84
2023/11/26 05:48:37;;;;;;;12.67;8.97;;;;;;;;;;5029846;28;20556;-85
2023/11/26 05:51:51;;;;;;;;;;;;;;;;;;;;;
2023/11/26 05:54:29;;;;;;;14.73;8.17;;;;;;;;;;5049745;28;20448;-84
2023/11/26 05:57:25;;;;;;;10.67;7.70;;;;;;;;;;4997003;28;20465;-84
2023/11/26 05:59:59;;;;;;;10.63;8.10;;;;;;;;;;5032105;28;20496;-85
2023/11/26 06:02:38;;;;;;;11.97;8.17;;;;;;;;;;5034544;28;20457;-85
2023/11/26 06:05:11;;;;;;;11.13;7.30;;;;;;;;;;5034573;28;20512;-85
2023/11/26 06:07:47;;;;;;;14.07;8.40;;;;;;;;;;5026705;28;20453;-84
2023/11/26 06:10:20;;;;;;;14.43;8.60;;;;;;;;;;5019823;28;20548;-84
2023/11/26 06:12:57;;;;;;;18.17;8.57;;;;;;;;;;5018828;28;21239;-84
2023/11/26 06:15:42;;;;;;;15.63;8.80;;;;;;;;;;5037178;28;20459;-84
2023/11/26 06:18:29;;;;;;;12.20;8.03;;;;;;;;;;5029646;28;20464;-85
2023/11/26 06:21:09;;;;;;;13.47;8.07;;;;;;;;;;5036979;28;20817;-85
2023/11/26 06:23:51;;;;;;;11.13;7.40;;;;;;;;;;5051052;28;20441;-85
2023/11/26 06:26:24;;;;;;;12.20;7.97;;;;;;;;;;5050572;28;20445;-84
2023/11/26 06:29:08;;;;;;;14.33;8.33;;;;;;;;;;5043819;28;20471;-83
2023/11/26 06:32:04;;;;;;;13.80;9.27;;;;;;;;;;5015371;28;20438;-85
2023/11/26 06:34:41;;;;;;;13.93;9.10;;;;;;;;;;5033233;28;20453;-85
2023/11/26 06:37:32;;;;;;;12.30;8.83;;;;;;;;;;5032694;28;20538;-85
2023/11/26 06:40:18;;;;;;;13.83;8.70;;;;;;;;;;5025773;28;20492;-85
2023/11/26 06:43:08;;;;;;;21.17;11.23;;;;;;;;;;5036343;28;20481;-85
2023/11/26 06:45:42;;;;;;;13.23;8.63;;;;;;;;;;5029930;28;20477;-86
2023/11/26 06:49:09;;;;;;;14.17;8.50;;;;;;;;;;4985346;28;20477;-84
2023/11/26 06:51:53;;;;;;;12.70;8.37;;;;;;;;;;5012002;28;20465;-85
2023/11/26 06:54:46;;;;;;;10.33;8.70;;;;;;;;;;5028574;28;20438;-84
2023/11/26 06:57:50;;;;;;;12.80;8.17;;;;;;;;;;4989336;28;20449;-86
2023/11/26 07:00:21;;;;;;;14.93;9.50;;;;;;;;;;5030453;28;20473;-85
2023/11/26 07:03:31;;;;;;;;;;;;;;;;;;;;;
2023/11/26 07:06:52;;;;;;;15.63;9.20;;;;;;;;;;5048356;28;20476;-84
2023/11/26 07:13:38;;;;;;;14.87;9.17;;;;;;;;;;4967406;28;20500;-86
2023/11/26 07:16:31;;;;;;;10.83;8.30;;;;;;;;;;4996107;28;20449;-84
2023/11/26 07:24:32;;;;;;;15.37;9.37;;;;;;;;;;5012590;28;20469;-85
2023/11/26 07:27:46;;;;;;;19.47;10.00;;;;;;;;;;5013686;28;20459;-83
2023/11/26 07:30:37;;;;;;;14.67;9.73;;;;;;;;;;4991253;28;20431;-84
2023/11/26 07:36:44;;;;;;;16.57;10.20;;;;;;;;;;4993809;28;20450;-84
2023/11/26 07:39:22;;;;;;;15.37;10.33;;;;;;;;;;4993220;28;20466;-87
2023/11/26 07:42:07;;;;;;;17.00;9.60;;;;;;;;;;4997447;28;20476;-86
2023/11/26 07:45:04;;;;;;;16.77;10.50;;;;;;;;;;4995421;28;20462;-87
2023/11/26 07:47:41;;;;;;;12.90;9.60;;;;;;;;;;4986481;28;20494;-87
2023/11/26 07:50:17;;;;;;;11.57;8.23;;;;;;;;;;4989693;28;20461;-85
2023/11/26 07:56:12;;;;;;;15.03;9.40;;;;;;;;;;4975700;28;20468;-84
2023/11/26 07:59:06;;;;;;;;;;;;;;;;;;;;;
2023/11/26 08:01:49;;;;;;;19.00;9.17;;;;;;;;;;4977421;28;20455;-85
2023/11/26 08:04:48;;;;;;;16.90;10.13;;;;;;;;;;4969763;28;20414;-85
2023/11/26 08:07:45;;;;;;;18.30;9.47;;;;;;;;;;4973817;28;20835;-86
2023/11/26 08:10:30;;;;;;;19.00;9.27;;;;;;;;;;4983392;28;20439;-86
2023/11/26 08:13:24;;;;;;;;;;;;;;;;;;;;;
2023/11/26 08:16:01;;;;;;;16.57;9.87;;;;;;;;;;4993054;28;20459;-87
2023/11/26 08:18:43;;;;;;;13.70;8.80;;;;;;;;;;4996576;28;20470;-85
2023/11/26 08:21:27;;;;;;;16.67;9.50;;;;;;;;;;4994707;28;20457;-83
2023/11/26 08:24:39;;;;;;;;;;;;;;;;;;;;;
2023/11/26 08:30:53;;;;;;;13.40;9.13;;;;;;;;;;4982116;28;20395;-83
2023/11/26 08:33:42;;;;;;;17.33;9.40;;;;;;;;;;4998402;28;20491;-83
2023/11/26 08:36:44;;;;;;;18.63;10.30;;;;;;;;;;5001612;28;20431;-84
2023/11/26 08:46:09;;;;;;;16.73;9.60;;;;;;;;;;4958009;28;20408;-85
2023/11/26 08:48:52;;;;;;;15.47;9.23;;;;;;;;;;4990907;28;20475;-84
2023/11/26 08:51:40;;;;;;;18.33;10.27;;;;;;;;;;4988827;28;20448;-84
2023/11/26 08:54:35;;;;;;;13.73;8.50;;;;;;;;;;4988914;28;20537;-84
2023/11/26 08:57:49;;;;;;;;;;;;;;;;;;;;;
2023/11/26 09:03:54;;;;;;;14.07;9.40;;;;;;;;;;4856529;29;20441;-87
2023/11/26 09:10:30;;;;;;;15.07;9.47;;;;;;;;;;4867913;29;20441;-84
2023/11/26 09:13:07;;;;;;;19.57;10.93;;;;;;;;;;4853918;29;20544;-86
2023/11/26 09:16:21;;;;;;;;;;;;;;;;;;;;;
2023/11/26 09:19:29;;;;;;;14.30;9.57;;;;;;;;;;4799083;29;20501;-84
2023/11/26 09:22:19;;;;;;;16.53;9.80;;;;;;;;;;4786897;29;20453;-86
2023/11/26 09:25:47;;;;;;;15.87;9.37;;;;;;;;;;4712158;30;20927;-86
2023/11/26 09:28:52;;;;;;;11.90;8.40;;;;;;;;;;4766024;29;20534;-85
2023/11/26 09:32:00;;;;;;;14.70;8.63;;;;;;;;;;4803613;29;20451;-86
2023/11/26 09:38:11;;;;;;;12.97;9.17;;;;;;;;;;4821825;29;20459;-86
2023/11/26 09:41:24;;;;;;;13.30;9.13;;;;;;;;;;4824320;29;20486;-85
2023/11/26 09:44:22;;;;;;;16.57;9.50;;;;;;;;;;4858867;29;20603;-84
2023/11/26 09:47:14;;;;;;;;;;;;;;;;;;;;;
2023/11/26 09:56:47;;;;;;;13.60;9.83;;;;;;;;;;5054505;23;20530;-86
2023/11/26 09:59:56;;;;;;;18.90;8.70;;;;;;;;;;4871246;29;20492;-86
2023/11/26 10:03:06;;;;;;;12.90;8.73;;;;;;;;;;4858266;29;20435;-86
2023/11/26 10:10:20;;;;;;;13.20;8.90;;;;;;;;;;4838810;29;20499;-87
2023/11/26 10:13:43;;;;;;;13.90;8.90;;;;;;;;;;4829211;29;21091;-85
2023/11/26 10:16:55;;;;;;;13.87;8.43;;;;;;;;;;4792575;29;20840;-87
2023/11/26 10:23:02;;;;;;;9.63;8.13;;;;;;;;;;4998523;28;20709;-85
2023/11/26 10:26:01;;;;;;;13.30;8.87;;;;;;;;;;5017992;28;20465;-84
2023/11/26 10:31:32;;;;;;;14.10;8.73;;;;;;;;;;4984741;28;20478;-85
2023/11/26 10:34:43;;;;;;;13.40;8.83;;;;;;;;;;4943104;28;20508;-85
2023/11/26 10:37:50;;;;;;;15.13;8.53;;;;;;;;;;4997387;28;21586;-87
2023/11/26 10:40:53;;;;;;;10.80;7.40;;;;;;;;;;4898667;29;20473;-85
2023/11/26 10:43:36;;;;;;;;;;;;;;;;;;;;;
2023/11/26 11:00:07;;;;;;;9.27;7.13;;;;;;;;;;4812219;29;20486;-86
2023/11/26 11:06:38;;;;;;;12.63;7.50;;;;;;;;;;4793559;29;20516;-87
2023/11/26 11:09:46;;;;;;;10.03;7.53;;;;;;;;;;4815992;29;20572;-84
2023/11/26 11:12:52;;;;;;;9.03;6.83;;;;;;;;;;4753224;30;20523;-86
2023/11/26 11:16:20;;;;;;;7.87;7.07;;;;;;;;;;4767189;29;20450;-86
2023/11/26 11:19:22;;;;;;;9.20;7.30;;;;;;;;;;4816179;29;20560;-85
2023/11/26 11:31:56;;;;;;;9.37;6.43;;;;;;;;;;5547369;23;20489;-84
2023/11/26 11:35:06;;;;;;;7.70;6.17;;;;;;;;;;5013577;28;20512;-84
2023/11/26 11:38:24;;;;;;;11.10;6.77;;;;;;;;;;4999903;28;20468;-86
2023/11/26 11:41:43;;;;;;;;;;;;;;;;;;;;;
2023/11/26 11:45:04;;;;;;;9.50;6.43;;;;;;;;;;5020141;28;20457;-85
2023/11/26 11:48:09;;;;;;;8.00;6.10;;;;;;;;;;4999903;28;20500;-86
2023/11/26 11:57:58;;;;;;;7.47;6.70;;;;;;;;;;4842102;29;20518;-84
2023/11/26 12:04:03;;;;;;;8.80;6.77;;;;;;;;;;4850164;29;20549;-86
2023/11/26 12:23:47;;;;;;;10.90;7.00;;;;;;;;;;4855795;29;20563;-86
2023/11/26 12:30:09;;;;;;;6.07;5.43;;;;;;;;;;4907933;29;20459;-87
2023/11/26 12:33:07;;;;;;;6.97;6.10;;;;;;;;;;4911013;29;20457;-86
2023/11/26 12:36:22;;;;;;;6.63;6.03;;;;;;;;;;4880333;29;20446;-86
2023/11/26 12:39:26;;;;;;;;;;;;;;;;;;;;;
2023/11/26 12:42:24;;;;;;;5.67;5.07;;;;;;;;;;4978923;28;21067;-85
2023/11/26 12:48:43;;;;;;;8.73;6.03;;;;;;;;;;4843240;29;20457;-87
2023/11/26 12:51:42;;;;;;;7.40;6.67;;;;;;;;;;4904705;29;20466;-86
2023/11/26 12:54:54;;;;;;;6.77;5.00;;;;;;;;;;4889763;29;20484;-85
2023/11/26 13:01:35;;;;;;;6.70;5.63;;;;;;;;;;4879696;29;20456;-84
2023/11/26 13:04:21;;;;;;;7.00;5.50;;;;;;;;;;4881864;29;20464;-87
2023/11/26 13:07:38;;;;;;;12.03;6.03;;;;;;;;;;4876216;29;20468;-85
2023/11/26 13:11:23;;;;;;;6.60;5.43;;;;;;;;;;4881416;29;20440;-85
2023/11/26 13:17:42;;;;;;;;;;;;;;;;;;;;;
2023/11/26 13:20:40;;;;;;;7.10;5.20;;;;;;;;;;4878665;29;20447;-85
2023/11/26 13:27:08;;;;;;;8.03;5.07;;;;;;;;;;4933663;28;20442;-86
2023/11/26 13:37:01;;;;;;;7.10;4.90;;;;;;;;;;4995998;28;20444;-84
2023/11/26 13:40:15;;;;;;;8.07;5.10;;;;;;;;;;5019049;28;20461;-85
2023/11/26 13:46:47;;;;;;;7.67;4.63;;;;;;;;;;4989932;28;21135;-85
2023/11/26 13:53:41;;;;;;;5.07;4.60;;;;;;;;;;4927005;29;20452;-85
2023/11/26 13:56:40;;;;;;;4.83;4.07;;;;;;;;;;4969708;28;20469;-86
2023/11/26 13:59:51;;;;;;;5.40;4.30;;;;;;;;;;4981083;28;20526;-86
2023/11/26 14:02:35;;;;;;;6.20;5.43;;;;;;;;;;4984909;28;21046;-85
2023/11/26 14:12:26;;;;;;;;;;;;;;;;;;;;;
2023/11/26 14:15:29;;;;;;;8.93;4.90;;;;;;;;;;4986433;28;20502;-84
2023/11/26 14:21:46;;;;;;;5.67;4.60;;;;;;;;;;4947439;28;20532;-85
2023/11/26 14:24:42;;;;;;;4.87;4.37;;;;;;;;;;5008776;28;20968;-85
2023/11/26 14:30:55;;;;;;;7.20;4.20;;;;;;;;;;5009247;28;20587;-84
2023/11/26 14:34:11;;;;;;;4.83;4.33;;;;;;;;;;4967017;28;21037;-85
2023/11/26 14:37:20;;;;;;;6.20;4.53;;;;;;;;;;4964778;28;20530;-87
2023/11/26 14:40:29;;;;;;;5.50;4.80;;;;;;;;;;4961842;28;20506;-86
2023/11/26 14:43:25;;;;;;;6.00;4.50;;;;;;;;;;4979381;28;20943;-86
2023/11/26 14:46:24;;;;;;;6.27;4.70;;;;;;;;;;4968073;28;20448;-84
2023/11/26 14:49:17;;;;;;;6.00;3.97;;;;;;;;;;4998159;23;20525;-84
2023/11/26 14:52:11;;;;;;;;;;;;;;;;;;;;;
2023/11/26 14:55:21;;;;;;;5.50;4.80;;;;;;;;;;5018498;28;20481;-84
2023/11/26 14:58:26;;;;;;;6.77;4.53;;;;;;;;;;5008647;28;20445;-83
2023/11/26 15:04:40;;;;;;;12.57;5.73;;;;;;;;;;4939355;28;20451;-84
2023/11/26 15:07:43;;;;;;;9.93;5.50;;;;;;;;;;4975079;28;20495;-85
2023/11/26 15:10:33;;;;;;;4.53;4.13;;;;;;;;;;4972372;28;20448;-85
2023/11/26 15:13:41;;;;;;;5.43;4.80;;;;;;;;;;4955635;28;20524;-86
2023/11/26 15:16:34;;;;;;;3.80;3.50;;;;;;;;;;4917461;29;20435;-86
2023/11/26 15:19:50;;;;;;;3.90;3.60;;;;;;;;;;4899109;29;20475;-85
2023/11/26 15:22:59;;;;;;;3.70;3.40;;;;;;;;;;4900160;28;20479;-85
2023/11/26 15:26:14;;;;;;;;;;;;;;;;;;;;;
2023/11/26 15:29:39;;;;;;;3.97;2.70;;;;;;;;;;4952024;28;20467;-85
2023/11/26 15:50:01;;;;;;;2.93;2.63;;;;;;;;;;5748589;22;10190060;-85
2023/11/26 15:53:06;;;;;;;3.60;2.67;;;;;;;;;;6195874;23;20235;-87
2023/11/26 16:02:44;;;;;;;3.53;2.87;;;;;;;;;;6221528;23;20482;-86
2023/11/26 16:06:02;;;;;;;3.30;3.00;;;;;;;;;;6164796;23;20425;-85
2023/11/26 16:09:06;;;;;;;7.17;3.53;;;;;;;;;;6138292;23;20386;-87
2023/11/26 16:15:37;;;;;;;5.10;3.90;;;;;;;;;;6123426;23;20417;-87
2023/11/26 16:18:34;;;;;;;5.00;3.77;;;;;;;;;;5993767;24;20470;-86
2023/11/26 16:21:47;;;;;;;5.70;3.70;;;;;;;;;;6040420;23;20530;-85
2023/11/26 16:24:35;;;;;;;5.07;4.13;;;;;;;;;;6024587;23;20422;-86
2023/11/26 16:27:48;;;;;;;6.93;4.60;;;;;;;;;;6037318;23;20995;-85
2023/11/26 16:31:05;;;;;;;5.23;4.17;;;;;;;;;;6043742;23;20901;-84
2023/11/26 16:34:19;;;;;;;7.20;3.70;;;;;;;;;;5984811;24;20408;-86
2023/11/26 16:37:23;;;;;;;6.97;4.53;;;;;;;;;;6007954;23;21161;-86
2023/11/26 16:40:31;;;;;;;4.60;4.20;;;;;;;;;;5984038;23;20431;-86
2023/11/26 16:43:31;;;;;;;8.97;6.60;;;;;;;;;;5935259;23;20438;-86
2023/11/26 16:46:47;;;;;;;7.70;4.73;;;;;;;;;;5994994;23;20455;-83
2023/11/26 16:49:21;;;;;;;12.73;11.07;;;;;;;;;;5990073;23;20455;-86
2023/11/26 16:55:45;;;;;;;11.60;6.63;;;;;;;;;;5903172;24;20428;-85
2023/11/26 16:58:30;;;;;;;7.80;5.43;;;;;;;;;;6074123;23;20484;-87
2023/11/26 17:08:46;;;;;;;11.43;6.50;;;;;;;;;;5950958;24;20443;-86
2023/11/26 17:15:50;;;;;;;13.10;6.70;;;;;;;;;;6067507;23;20368;-85
2023/11/26 17:19:03;;;;;;;;;;;;;;;;;;;;;
2023/11/26 17:32:04;;;;;;;;;;;;;;;;;;;;;
2023/11/26 17:35:19;;;;;;;9.83;5.30;;;;;;;;;;6214153;23;20407;-86
2023/11/26 17:38:22;;;;;;;8.53;5.40;;;;;;;;;;6161171;23;20455;-87
2023/11/26 17:41:43;;;;;;;13.43;6.03;;;;;;;;;;6119477;23;20419;-86
2023/11/26 17:45:05;;;;;;;;;;;;;;;;;;;;;
2023/11/26 17:51:55;;;;;;;;;;;;;;;;;;;;;
2023/11/26 17:58:17;;;;;;;10.97;6.30;;;;;;;;;;6149618;23;20453;-87
2023/11/26 18:04:54;;;;;;;8.27;5.30;;;;;;;;;;6159086;23;20419;-89
2023/11/26 18:07:58;;;;;;;11.83;5.80;;;;;;;;;;6097156;23;20420;-88
2023/11/26 18:10:52;;;;;;;7.70;5.43;;;;;;;;;;6184276;23;20417;-87
2023/11/26 18:13:25;;;;;;;12.40;4.93;;;;;;;;;;6190281;23;20404;-85
2023/11/26 18:16:09;;;;;;;8.60;4.80;;;;;;;;;;6203842;23;20389;-85
2023/11/26 18:19:16;;;;;;;11.70;5.00;;;;;;;;;;6130964;23;20455;-85
2023/11/26 18:22:18;;;;;;;9.43;5.20;;;;;;;;;;6124369;23;20420;-87
2023/11/26 18:25:19;;;;;;;8.77;5.83;;;;;;;;;;6119852;23;20471;-87
2023/11/26 18:28:32;;;;;;;9.73;5.00;;;;;;;;;;6102475;23;20439;-86
2023/11/26 18:31:46;;;;;;;;;;;;;;;;;;;;;
2023/11/26 18:35:03;;;;;;;14.07;6.00;;;;;;;;;;6017677;23;20410;-86
2023/11/26 18:41:58;;;;;;;9.27;5.93;;;;;;;;;;5927740;24;20387;-86
2023/11/26 18:44:45;;;;;;;9.70;5.67;;;;;;;;;;5823185;24;20420;-86
2023/11/26 18:47:31;;;;;;;8.87;5.30;;;;;;;;;;5897927;24;20916;-87
2023/11/26 18:56:57;;;;;;;8.97;6.43;;;;;;;;;;5858438;24;20455;-84
2023/11/26 18:59:47;;;;;;;12.90;5.63;;;;;;;;;;6059533;23;20482;-86
2023/11/26 19:02:40;;;;;;;9.87;5.30;;;;;;;;;;6117341;23;20404;-84
2023/11/26 19:05:26;;;;;;;7.47;5.63;;;;;;;;;;6072639;23;20400;-85
2023/11/26 19:08:37;;;;;;;9.60;5.50;;;;;;;;;;6040478;23;20428;-85
2023/11/26 19:11:25;;;;;;;8.40;5.90;;;;;;;;;;6102304;23;20415;-84
2023/11/26 19:20:47;;;;;;;7.33;5.20;;;;;;;;;;6132651;23;20679;-86
2023/11/26 19:23:41;;;;;;;9.77;5.03;;;;;;;;;;6126525;23;20506;-83
2023/11/26 19:26:26;;;;;;;10.10;5.33;;;;;;;;;;5933684;24;20448;-86
2023/11/26 19:32:56;;;;;;;5.60;4.47;;;;;;;;;;6089391;23;20816;-85
2023/11/26 19:48:49;;;;;;;6.60;5.30;;;;;;;;;;6199311;23;20732;-84
2023/11/26 19:52:10;;;;;;;6.23;4.70;;;;;;;;;;6206937;23;20485;-85
2023/11/26 19:58:29;;;;;;;7.50;5.47;;;;;;;;;;6200457;23;20456;-85
2023/11/26 20:04:57;;;;;;;8.90;5.03;;;;;;;;;;6234978;23;20477;-86
2023/11/26 20:10:40;;;;;;;11.90;5.03;;;;;;;;;;6169950;23;20434;-85
2023/11/26 20:13:29;;;;;;;10.20;5.20;;;;;;;;;;6151684;23;20395;-87
2023/11/26 20:26:32;;;;;;;6.43;4.30;;;;;;;;;;6160217;23;20402;-84
2023/11/26 20:29:35;;;;;;;5.27;3.37;;;;;;;;;;6101176;23;20465;-86
2023/11/26 20:35:59;;;;;;;5.07;4.00;;;;;;;;;;6056550;23;20427;-85
2023/11/26 20:39:31;;;;;;;;;;;;;;;;;;;;;
2023/11/26 20:42:58;;;;;;;7.20;3.87;;;;;;;;;;6005245;23;20407;-85
2023/11/26 20:52:38;;;;;;;6.37;3.57;;;;;;;;;;6051361;23;20445;-84
2023/11/26 20:55:15;;;;;;;6.13;4.70;;;;;;;;;;6042701;23;20402;-85
2023/11/26 20:58:47;;;;;;;7.00;2.97;;;;;;;;;;6001819;23;20441;-83
2023/11/26 21:01:40;;;;;;;6.53;3.30;;;;;;;;;;6058472;23;20414;-87
2023/11/26 21:04:28;;;;;;;6.20;3.90;;;;;;;;;;6067961;23;20479;-84
2023/11/26 21:07:43;;;;;;;5.67;3.90;;;;;;;;;;6066183;23;20432;-86
2023/11/26 21:13:50;;;;;;;10.20;4.97;;;;;;;;;;6064966;23;20429;-87
2023/11/26 21:16:37;;;;;;;8.20;4.00;;;;;;;;;;6064264;23;20412;-86
2023/11/26 21:19:55;;;;;;;;;;;;;;;;;;;;;
2023/11/26 21:22:59;;;;;;;5.30;3.60;;;;;;;;;;6129612;23;20431;-86
2023/11/26 21:26:13;;;;;;;5.90;4.20;;;;;;;;;;6100818;23;20404;-85
2023/11/26 21:47:09;;;;;;;5.70;3.60;;;;;;;;;;6056673;23;20454;-86
2023/11/26 21:53:08;;;;;;;2.70;2.40;;;;;;;;;;6051374;23;20457;-84
2023/11/26 21:56:04;;;;;;;3.40;3.10;;;;;;;;;;6083152;23;20429;-83
2023/11/26 21:59:26;;;;;;;2.97;2.67;;;;;;;;;;6074005;23;20556;-86
2023/11/26 22:02:32;;;;;;;4.53;2.77;;;;;;;;;;5995672;23;20498;-85
2023/11/26 22:05:08;;;;;;;2.67;2.20;;;;;;;;;;6136381;23;20443;-86
2023/11/26 22:11:34;;;;;;;2.70;1.97;;;;;;;;;;6108640;23;20475;-85
2023/11/26 22:14:38;;;;;;;4.33;2.50;;;;;;;;;;6131313;23;20396;-87
2023/11/26 22:17:26;;;;;;;3.00;1.97;;;;;;;;;;6112502;23;20490;-83
2023/11/26 22:20:11;;;;;;;4.50;2.33;;;;;;;;;;6111866;23;20467;-87
2023/11/26 22:26:51;;;;;;;3.60;2.33;;;;;;;;;;5997654;23;21133;-83
2023/11/26 22:29:32;;;;;;;4.20;2.13;;;;;;;;;;6059349;23;20464;-85
2023/11/26 22:32:16;;;;;;;2.27;2.03;;;;;;;;;;6104138;23;20428;-85
2023/11/26 22:34:56;;;;;;;;;;;;;;;;;;;;;
2023/11/26 22:37:45;;;;;;;3.00;2.03;;;;;;;;;;6129768;23;20412;-86
2023/11/26 22:41:10;;;;;;;2.20;2.00;;;;;;;;;;6124264;23;20408;-84
2023/11/26 22:44:20;;;;;;;5.50;2.47;;;;;;;;;;6110396;23;20421;-85
2023/11/26 22:50:50;;;;;;;5.70;3.07;;;;;;;;;;5983629;23;20522;-88
2023/11/26 22:53:44;;;;;;;2.73;1.80;;;;;;;;;;6011631;23;20962;-85
2023/11/26 22:56:44;;;;;;;9.30;1.93;;;;;;;;;;5944398;23;20442;-83
2023/11/26 23:00:10;;;;;;;4.23;2.50;;;;;;;;;;6003294;23;20495;-85
2023/11/26 23:03:02;;;;;;;2.97;2.67;;;;;;;;;;5992616;23;20398;-84
2023/11/26 23:05:46;;;;;;;3.57;2.20;;;;;;;;;;5920142;24;20398;-86
2023/11/26 23:08:47;;;;;;;3.73;2.30;;;;;;;;;;5958044;24;20533;-84
2023/11/26 23:11:34;;;;;;;6.07;2.33;;;;;;;;;;6014403;23;20415;-85
2023/11/26 23:21:08;;;;;;;2.73;2.50;;;;;;;;;;6012589;23;20446;-85
2023/11/26 23:23:49;;;;;;;3.63;2.20;;;;;;;;;;6037960;23;20745;-85
2023/11/26 23:27:00;;;;;;;2.83;2.40;;;;;;;;;;6014450;23;20956;-86
2023/11/26 23:29:48;;;;;;;3.57;2.30;;;;;;;;;;6007330;23;20423;-85